Underhill Center, Vermont
Current Conditions -  °F | °C
As of 8:54 AM on Sunday 23 Nov 2014 (Local Time) from KBTV Reporting Station
Overcast Overcast  
Wind Chill: 38°   Ceiling: 2800
Heat Index: 43°   Visibility: 10mi
Dew Point: 36°   Wind: 8mph
Humidity: 76%   Direction: 210°SSW
Pressure: 30.07"   Gusts: NA
Location:  44.51°N, 72.9°W
Report Text: KBTV 231354Z 21007KT 10SM OVC028 06/02 A3007 RMK AO2 SLP184 CLDS OBSCG MTNS E-SE VCSH T00610022
Loading
Personal Weather Stations






























Interactive Weather Map New forecast layout! Learn more

10-Day Weather Forecast

Advertisements
Track Severe Weather on mobile